createdAt,value
2019-02-26T00:01:53.025Z,4.04
2019-02-26T00:04:25.441Z,3.96
2019-02-26T00:06:57.947Z,3.89
2019-02-26T00:09:30.544Z,3.85
2019-02-26T00:12:01.657Z,3.85
2019-02-26T00:14:32.326Z,3.86
2019-02-26T00:17:06.169Z,3.87
2019-02-26T00:19:34.786Z,3.85
2019-02-26T00:22:07.235Z,3.83
2019-02-26T00:24:39.737Z,3.84
2019-02-26T00:27:10.065Z,3.83
2019-02-26T00:29:40.476Z,3.81
2019-02-26T00:32:12.266Z,3.80
2019-02-26T00:34:44.733Z,3.79
2019-02-26T00:37:17.088Z,3.79
2019-02-26T00:39:49.688Z,3.76
2019-02-26T00:42:23.593Z,3.80
2019-02-26T00:44:55.483Z,3.82
2019-02-26T00:47:31.851Z,3.83
2019-02-26T00:50:00.313Z,3.82
2019-02-26T00:52:32.552Z,3.84
2019-02-26T00:55:04.948Z,3.85
2019-02-26T00:57:36.467Z,3.83
2019-02-26T01:00:09.930Z,3.85
2019-02-26T01:02:41.013Z,3.83
2019-02-26T01:05:13.210Z,3.78
2019-02-26T01:07:44.919Z,3.73
2019-02-26T01:10:16.916Z,3.72
2019-02-26T01:12:47.719Z,3.79
2019-02-26T01:15:18.059Z,3.87
2019-02-26T01:17:48.602Z,3.89
2019-02-26T01:20:19.627Z,3.96
2019-02-26T01:22:50.995Z,3.96
2019-02-26T01:25:22.925Z,3.82
2019-02-26T01:27:55.614Z,3.75
2019-02-26T01:30:27.000Z,3.87
2019-02-26T01:32:59.930Z,3.89
2019-02-26T01:35:30.759Z,3.86
2019-02-26T01:38:01.995Z,3.82
2019-02-26T01:40:32.814Z,3.74
2019-02-26T01:43:05.507Z,3.69
2019-02-26T01:45:35.513Z,3.63
2019-02-26T01:48:08.344Z,3.60
2019-02-26T01:50:40.609Z,3.56
2019-02-26T01:53:12.010Z,3.52
2019-02-26T01:55:44.154Z,3.47
2019-02-26T01:58:16.587Z,3.41
2019-02-26T02:00:46.549Z,3.33
2019-02-26T02:03:18.626Z,3.36
2019-02-26T02:05:50.777Z,3.39
2019-02-26T02:08:24.454Z,3.40
2019-02-26T02:10:56.544Z,3.41
2019-02-26T02:13:28.770Z,3.45
2019-02-26T02:15:59.827Z,3.60
2019-02-26T02:18:30.703Z,3.72
2019-02-26T02:21:01.058Z,3.80
2019-02-26T02:23:31.431Z,3.83
2019-02-26T02:26:04.078Z,3.85
2019-02-26T02:28:35.604Z,3.85
2019-02-26T02:31:06.147Z,3.80
2019-02-26T02:33:37.569Z,3.71
2019-02-26T02:36:09.716Z,3.64
2019-02-26T02:38:39.912Z,3.63
2019-02-26T02:41:10.180Z,3.61
2019-02-26T02:43:40.561Z,3.59
2019-02-26T02:46:10.888Z,3.60
2019-02-26T02:48:41.849Z,3.61
2019-02-26T02:51:13.885Z,3.62
2019-02-26T02:53:47.720Z,3.64
2019-02-26T02:56:18.167Z,3.64
2019-02-26T02:58:49.487Z,3.69
2019-02-26T03:01:22.948Z,3.72
2019-02-26T03:03:53.804Z,3.72
2019-02-26T03:06:27.245Z,3.73
2019-02-26T03:08:56.875Z,3.73
2019-02-26T03:11:27.259Z,3.73
2019-02-26T03:13:57.504Z,3.71
2019-02-26T03:16:27.802Z,3.70
2019-02-26T03:18:58.329Z,3.71
2019-02-26T03:21:30.683Z,3.69
2019-02-26T03:24:02.886Z,3.71
2019-02-26T03:26:33.051Z,3.71
2019-02-26T03:29:03.419Z,3.70
2019-02-26T03:31:35.214Z,3.70
2019-02-26T03:34:10.576Z,3.69
2019-02-26T03:36:40.187Z,3.72
2019-02-26T03:39:09.773Z,3.76
2019-02-26T03:41:40.326Z,3.79
2019-02-26T03:44:11.458Z,3.86
2019-02-26T03:46:41.715Z,3.89
2019-02-26T03:49:12.146Z,3.93
2019-02-26T03:51:42.432Z,3.95
2019-02-26T03:54:12.689Z,3.98
2019-02-26T03:56:43.356Z,4.01
2019-02-26T03:59:13.611Z,4.00
2019-02-26T04:01:43.873Z,4.00
2019-02-26T04:04:14.442Z,4.09
2019-02-26T04:06:47.110Z,4.15
2019-02-26T04:09:18.966Z,4.04
2019-02-26T04:11:51.025Z,4.09
2019-02-26T04:14:22.895Z,4.18
2019-02-26T04:16:56.065Z,4.28
2019-02-26T04:19:26.879Z,4.35
2019-02-26T04:22:34.276Z,4.35
2019-02-26T04:25:11.173Z,4.35
2019-02-26T04:28:30.754Z,4.35
2019-02-26T04:31:38.516Z,4.31
2019-02-26T04:34:28.877Z,4.29
2019-02-26T04:37:30.151Z,4.21
2019-02-26T04:40:30.397Z,4.20
2019-02-26T04:43:34.114Z,4.17
2019-02-26T04:46:31.043Z,4.15
2019-02-26T04:49:00.338Z,4.24
2019-02-26T04:51:31.039Z,4.38
2019-02-26T04:54:02.130Z,4.39
2019-02-26T04:56:36.007Z,4.42
2019-02-26T04:59:07.042Z,4.50
2019-02-26T05:01:36.904Z,4.55
2019-02-26T05:04:07.177Z,4.42
2019-02-26T05:06:39.546Z,4.41
2019-02-26T05:09:10.618Z,4.50
2019-02-26T05:11:40.994Z,4.59
2019-02-26T05:14:14.300Z,4.67
2019-02-26T05:16:43.814Z,4.73
2019-02-26T05:19:16.420Z,4.74
2019-02-26T05:21:45.960Z,4.73
2019-02-26T05:24:18.012Z,4.74
2019-02-26T05:26:48.416Z,4.71
2019-02-26T05:29:18.741Z,4.66
2019-02-26T05:31:49.522Z,4.64
2019-02-26T05:34:22.618Z,4.60
2019-02-26T05:36:52.146Z,4.52
2019-02-26T05:39:25.664Z,4.55
2019-02-26T05:41:58.845Z,4.51
2019-02-26T05:44:27.907Z,4.51
2019-02-26T05:47:01.367Z,4.43
2019-02-26T05:49:32.204Z,4.34
2019-02-26T05:52:04.206Z,4.29
2019-02-26T05:54:35.402Z,4.23
2019-02-26T05:57:06.672Z,4.18
2019-02-26T05:59:37.725Z,4.13
2019-02-26T06:02:10.587Z,4.07
2019-02-26T06:04:41.854Z,3.99
2019-02-26T06:07:12.578Z,3.95
2019-02-26T06:09:45.204Z,3.90
2019-02-26T06:12:15.150Z,3.93
2019-02-26T06:14:45.537Z,3.93
2019-02-26T06:17:17.952Z,3.95
2019-02-26T06:19:49.366Z,3.94
2019-02-26T06:22:21.325Z,3.91
2019-02-26T06:24:54.955Z,3.88
2019-02-26T06:27:25.180Z,3.83
2019-02-26T06:29:58.178Z,3.83
2019-02-26T06:32:32.229Z,3.82
2019-02-26T06:35:00.429Z,3.81
2019-02-26T06:37:33.061Z,3.79
2019-02-26T06:40:05.669Z,3.73
2019-02-26T06:42:38.068Z,3.68
2019-02-26T06:45:11.536Z,3.66
2019-02-26T06:47:42.800Z,3.62
2019-02-26T06:50:15.846Z,3.60
2019-02-26T06:52:47.489Z,3.61
2019-02-26T06:55:17.384Z,3.66
2019-02-26T06:57:50.818Z,3.72
2019-02-26T07:00:23.933Z,3.68
2019-02-26T07:02:53.577Z,3.61
2019-02-26T07:05:24.666Z,3.59
2019-02-26T07:07:57.146Z,3.55
2019-02-26T07:10:30.774Z,3.56
2019-02-26T07:12:59.530Z,3.60
2019-02-26T07:15:30.163Z,3.65
2019-02-26T07:18:04.437Z,3.71
2019-02-26T07:20:34.306Z,3.77
2019-02-26T07:23:05.786Z,3.82
2019-02-26T07:25:39.440Z,3.88
2019-02-26T07:28:09.588Z,3.91
2019-02-26T07:30:42.318Z,3.97
2019-02-26T07:33:14.979Z,4.05
2019-02-26T07:35:44.395Z,4.07
2019-02-26T07:38:16.175Z,4.13
2019-02-26T07:40:47.245Z,4.17
2019-02-26T07:43:19.930Z,4.22
2019-02-26T07:45:51.335Z,4.33
2019-02-26T07:48:28.772Z,4.44
2019-02-26T07:50:59.719Z,4.55
2019-02-26T07:53:30.108Z,4.66
2019-02-26T07:56:01.796Z,4.74
2019-02-26T07:58:33.288Z,4.88
2019-02-26T08:01:05.686Z,5.02
2019-02-26T08:03:36.135Z,5.13
2019-02-26T08:06:11.633Z,5.24
2019-02-26T08:08:44.963Z,5.36
2019-02-26T08:11:20.309Z,5.51
2019-02-26T08:13:59.347Z,5.68
2019-02-26T08:16:30.325Z,5.84
2019-02-26T08:19:01.353Z,6.04
2019-02-26T08:21:31.827Z,6.22
2019-02-26T08:24:02.438Z,6.31
2019-02-26T08:26:32.760Z,6.44
2019-02-26T08:29:05.116Z,6.59
2019-02-26T08:31:35.018Z,6.70
2019-02-26T08:34:05.241Z,6.78
2019-02-26T08:36:35.551Z,6.86
2019-02-26T08:39:09.171Z,7.00
2019-02-26T08:41:39.552Z,7.14
2019-02-26T08:44:10.154Z,7.34
2019-02-26T08:46:42.694Z,7.56
2019-02-26T08:49:15.148Z,7.78
2019-02-26T08:51:45.250Z,8.29
2019-02-26T08:54:20.950Z,9.04
2019-02-26T08:56:48.079Z,9.93
2019-02-26T08:59:20.146Z,10.46
2019-02-26T09:01:51.190Z,11.07
2019-02-26T09:04:23.789Z,11.76
2019-02-26T09:06:54.708Z,12.53
2019-02-26T09:09:27.820Z,14.37
2019-02-26T09:12:00.623Z,14.92
2019-02-26T09:14:34.421Z,14.92
2019-02-26T09:17:04.512Z,15.27
2019-02-26T09:19:36.021Z,15.63
2019-02-26T09:22:09.661Z,15.86
2019-02-26T09:24:41.000Z,15.71
2019-02-26T09:27:11.254Z,15.75
2019-02-26T09:29:47.170Z,15.70
2019-02-26T09:32:16.559Z,15.58
2019-02-26T09:34:48.148Z,15.67
2019-02-26T09:37:18.469Z,15.69
2019-02-26T09:39:48.873Z,16.12
2019-02-26T09:42:21.057Z,16.46
2019-02-26T09:44:53.055Z,16.72
2019-02-26T09:47:33.247Z,16.83
2019-02-26T09:50:02.768Z,16.99
2019-02-26T09:52:33.241Z,16.81
2019-02-26T09:55:03.972Z,16.83
2019-02-26T09:57:34.650Z,17.20
2019-02-26T10:00:07.946Z,17.16
2019-02-26T10:02:40.132Z,17.44
2019-02-26T10:05:13.513Z,17.66
2019-02-26T10:07:44.326Z,17.86
2019-02-26T10:10:16.417Z,17.82
2019-02-26T10:12:47.402Z,17.92
2019-02-26T10:15:17.795Z,17.70
2019-02-26T10:17:48.533Z,17.64
2019-02-26T10:20:22.600Z,17.94
2019-02-26T10:22:57.144Z,18.64
2019-02-26T10:25:28.662Z,19.04
2019-02-26T10:28:03.020Z,19.44
2019-02-26T10:30:33.386Z,19.31
2019-02-26T10:33:03.053Z,19.60
2019-02-26T10:35:36.084Z,19.45
2019-02-26T10:38:08.263Z,19.58
2019-02-26T10:40:50.724Z,19.29
2019-02-26T10:43:11.881Z,18.86
2019-02-26T10:45:44.797Z,18.74
2019-02-26T10:48:22.826Z,19.08
2019-02-26T10:50:52.319Z,19.52
2019-02-26T10:53:23.114Z,19.77
2019-02-26T10:55:53.868Z,20.32
2019-02-26T10:58:24.577Z,20.54
2019-02-26T11:00:58.248Z,20.41
2019-02-26T11:03:30.101Z,20.07
2019-02-26T11:06:01.025Z,20.28
2019-02-26T11:08:32.899Z,20.90
2019-02-26T11:11:05.209Z,21.15
2019-02-26T11:13:37.748Z,21.28
2019-02-26T11:16:08.899Z,20.84
2019-02-26T11:18:44.912Z,21.19
2019-02-26T11:21:15.025Z,21.08
2019-02-26T11:23:46.461Z,21.10
2019-02-26T11:26:18.737Z,21.15
2019-02-26T11:28:49.610Z,21.10
2019-02-26T11:31:25.030Z,21.05
2019-02-26T11:33:52.128Z,21.12
2019-02-26T11:36:22.454Z,21.01
2019-02-26T11:38:54.051Z,20.84
2019-02-26T11:41:26.456Z,20.64
2019-02-26T11:43:58.244Z,20.53
2019-02-26T11:46:29.897Z,20.50
2019-02-26T11:49:01.192Z,20.33
2019-02-26T11:51:37.094Z,20.39
2019-02-26T11:54:04.999Z,20.06
2019-02-26T11:56:39.681Z,20.04
2019-02-26T11:59:11.230Z,20.45
2019-02-26T12:01:42.128Z,20.47
2019-02-26T12:04:14.299Z,20.40
2019-02-26T12:06:45.051Z,20.62
2019-02-26T12:09:16.202Z,20.78
2019-02-26T12:11:46.702Z,20.90
2019-02-26T12:14:19.461Z,21.00
2019-02-26T12:16:49.092Z,20.84
2019-02-26T12:19:19.611Z,20.69
2019-02-26T12:21:51.860Z,20.66
2019-02-26T12:24:24.196Z,20.61
2019-02-26T12:26:55.998Z,20.62
2019-02-26T12:29:34.123Z,21.14
2019-02-26T12:32:06.286Z,21.32
2019-02-26T12:34:41.232Z,21.75
2019-02-26T12:37:14.426Z,21.80
2019-02-26T12:39:47.377Z,21.71
2019-02-26T12:42:21.700Z,20.99
2019-02-26T12:44:52.079Z,19.95
2019-02-26T12:47:24.652Z,19.37
2019-02-26T12:49:56.181Z,18.56
2019-02-26T12:52:30.207Z,18.09
2019-02-26T12:55:00.798Z,17.77
2019-02-26T12:57:32.126Z,17.44
2019-02-26T13:00:02.963Z,17.13
2019-02-26T13:02:36.266Z,16.85
2019-02-26T13:05:07.420Z,16.72
2019-02-26T13:07:38.460Z,16.53
2019-02-26T13:10:11.811Z,16.39
2019-02-26T13:12:47.198Z,16.16
2019-02-26T13:15:19.315Z,16.02
2019-02-26T13:17:54.189Z,15.87
2019-02-26T13:20:22.777Z,15.83
2019-02-26T13:22:56.469Z,15.63
2019-02-26T13:25:26.829Z,15.67
2019-02-26T13:27:57.439Z,15.74
2019-02-26T13:30:27.825Z,15.77
2019-02-26T13:33:00.869Z,15.81
2019-02-26T13:35:30.282Z,15.80
2019-02-26T13:38:00.683Z,15.80
2019-02-26T13:40:38.095Z,15.71
2019-02-26T13:45:34.542Z,15.68
2019-02-26T13:48:05.215Z,15.66
2019-02-26T13:50:35.558Z,15.67
2019-02-26T13:53:06.135Z,15.56
2019-02-26T13:55:36.458Z,15.49
2019-02-26T13:58:11.750Z,15.45
2019-02-26T14:00:39.433Z,15.47
2019-02-26T14:03:09.918Z,15.46
2019-02-26T14:05:40.920Z,15.50
2019-02-26T14:08:11.331Z,15.45
2019-02-26T14:10:41.657Z,15.41
2019-02-26T14:13:12.325Z,15.40
2019-02-26T14:15:42.748Z,15.34
2019-02-26T14:18:13.216Z,15.37
2019-02-26T14:20:45.628Z,15.43
2019-02-26T14:23:16.741Z,15.43
2019-02-26T14:25:47.403Z,15.40
2019-02-26T14:28:18.329Z,15.42
2019-02-26T14:30:48.696Z,15.38
2019-02-26T14:33:19.594Z,15.39
2019-02-26T14:35:50.646Z,15.39
2019-02-26T14:38:23.349Z,15.39
2019-02-26T14:40:53.763Z,15.36
2019-02-26T14:43:24.808Z,15.31
2019-02-26T14:45:55.969Z,15.24
2019-02-26T14:48:26.309Z,15.22
2019-02-26T14:50:57.114Z,15.18
2019-02-26T14:53:27.828Z,15.16
2019-02-26T14:55:58.500Z,15.10
2019-02-26T14:58:29.315Z,15.04
2019-02-26T15:01:00.489Z,14.95
2019-02-26T15:03:31.110Z,14.88
2019-02-26T15:06:02.745Z,14.85
2019-02-26T15:08:33.148Z,14.82
2019-02-26T15:11:03.575Z,14.77
2019-02-26T15:13:34.139Z,14.72
2019-02-26T15:16:04.794Z,14.64
2019-02-26T15:18:35.877Z,14.61
2019-02-26T15:21:06.498Z,14.53
2019-02-26T15:23:36.837Z,14.47
2019-02-26T15:26:07.142Z,14.41
2019-02-26T15:28:43.390Z,14.32
2019-02-26T15:31:13.880Z,14.23
2019-02-26T15:33:44.221Z,14.20
2019-02-26T15:36:14.980Z,14.18
2019-02-26T15:38:46.491Z,14.15
2019-02-26T15:41:16.802Z,14.11
2019-02-26T15:43:47.569Z,14.09
2019-02-26T15:46:17.942Z,14.03
2019-02-26T15:48:49.559Z,14.01
2019-02-26T15:51:20.697Z,13.92
2019-02-26T15:53:55.197Z,13.82
2019-02-26T15:56:23.461Z,13.78
2019-02-26T15:58:54.532Z,13.71
2019-02-26T16:01:24.945Z,13.71
2019-02-26T16:03:55.338Z,13.69
2019-02-26T16:06:25.747Z,13.69
2019-02-26T16:08:56.001Z,13.61
2019-02-26T16:11:26.667Z,13.58
2019-02-26T16:13:57.011Z,13.51
2019-02-26T16:16:27.607Z,13.49
2019-02-26T16:19:00.328Z,13.43
2019-02-26T16:21:30.039Z,13.36
2019-02-26T16:24:00.477Z,13.36
2019-02-26T16:26:30.818Z,13.22
2019-02-26T16:29:01.593Z,13.20
2019-02-26T16:31:32.338Z,13.14
2019-02-26T16:34:02.937Z,13.14
2019-02-26T16:36:33.433Z,13.09
2019-02-26T16:39:05.433Z,13.00
2019-02-26T16:41:38.346Z,12.97
2019-02-26T16:44:14.894Z,12.87
2019-02-26T16:46:46.481Z,12.80
2019-02-26T16:49:21.166Z,12.74
2019-02-26T16:51:54.916Z,12.59
2019-02-26T16:54:26.930Z,12.50
2019-02-26T16:56:57.907Z,12.46
2019-02-26T16:59:28.309Z,12.41
2019-02-26T17:01:58.998Z,12.38
2019-02-26T17:04:30.917Z,12.32
2019-02-26T17:07:01.518Z,12.29
2019-02-26T17:09:32.393Z,12.23
2019-02-26T17:12:06.231Z,12.17
2019-02-26T17:14:44.125Z,12.09
2019-02-26T17:17:21.938Z,12.01
2019-02-26T17:24:45.495Z,11.77
2019-02-26T17:27:30.861Z,11.68
2019-02-26T17:30:13.342Z,11.59
2019-02-26T17:33:18.686Z,11.58
2019-02-26T17:36:23.856Z,11.57
2019-02-26T17:39:15.571Z,11.52
2019-02-26T17:44:51.151Z,11.49
2019-02-26T17:47:24.599Z,11.48
2019-02-26T17:49:55.268Z,11.47
2019-02-26T17:52:26.286Z,11.45
2019-02-26T17:54:57.022Z,11.42
2019-02-26T17:57:28.323Z,11.41
2019-02-26T17:59:59.251Z,11.41
2019-02-26T18:02:29.473Z,11.41
2019-02-26T18:05:01.846Z,11.38
2019-02-26T18:07:33.049Z,11.36
2019-02-26T18:10:03.587Z,11.33
2019-02-26T18:12:33.986Z,11.29
2019-02-26T18:15:04.810Z,11.22
2019-02-26T18:17:35.574Z,11.19
2019-02-26T18:20:07.410Z,11.15
2019-02-26T18:22:38.249Z,11.13
2019-02-26T18:25:09.540Z,11.14
2019-02-26T18:27:40.021Z,11.03
2019-02-26T18:30:15.076Z,11.01
2019-02-26T18:32:50.143Z,10.98
2019-02-26T18:35:18.121Z,10.95
2019-02-26T18:37:49.180Z,10.91
2019-02-26T18:40:19.716Z,10.85
2019-02-26T18:42:50.929Z,10.80
2019-02-26T18:45:27.475Z,10.74
2019-02-26T18:47:56.906Z,10.69
2019-02-26T18:50:28.439Z,10.62
2019-02-26T18:52:59.937Z,10.55
2019-02-26T18:55:43.887Z,10.50
2019-02-26T18:58:24.684Z,10.45
2019-02-26T19:00:58.347Z,10.42
2019-02-26T19:03:27.548Z,10.35
2019-02-26T19:05:59.240Z,10.30
2019-02-26T19:08:29.925Z,10.20
2019-02-26T19:11:00.352Z,10.12
2019-02-26T19:13:33.303Z,10.06
2019-02-26T19:16:03.234Z,9.97
2019-02-26T19:18:35.790Z,9.86
2019-02-26T19:21:05.845Z,9.76
2019-02-26T19:23:50.161Z,9.67
2019-02-26T19:26:18.340Z,9.61
2019-02-26T19:28:49.103Z,9.53
2019-02-26T19:31:19.604Z,9.45
2019-02-26T19:33:49.927Z,9.43
2019-02-26T19:36:21.043Z,9.41
2019-02-26T19:38:51.805Z,9.36
2019-02-26T19:41:22.537Z,9.22
2019-02-26T19:43:52.872Z,9.26
2019-02-26T19:46:23.408Z,9.22
2019-02-26T19:48:53.863Z,9.15
2019-02-26T19:51:25.640Z,9.16
2019-02-26T19:53:56.331Z,9.21
2019-02-26T19:56:26.883Z,9.10
2019-02-26T19:58:57.353Z,9.10
2019-02-26T20:01:28.076Z,9.06
2019-02-26T20:03:58.536Z,9.05
2019-02-26T20:06:30.538Z,9.06
2019-02-26T20:09:01.082Z,9.04
2019-02-26T20:11:31.521Z,8.97
2019-02-26T20:14:04.694Z,8.94
2019-02-26T20:16:34.932Z,8.90
2019-02-26T20:19:08.607Z,8.81
2019-02-26T20:21:45.096Z,8.74
2019-02-26T20:24:16.601Z,8.67
2019-02-26T20:26:49.983Z,8.61
2019-02-26T20:29:20.173Z,8.51
2019-02-26T20:31:50.800Z,8.41
2019-02-26T20:34:21.798Z,8.33
2019-02-26T20:36:52.066Z,8.24
2019-02-26T20:39:25.224Z,8.16
2019-02-26T20:41:56.194Z,8.05
2019-02-26T20:44:26.589Z,7.96
2019-02-26T20:46:58.143Z,7.91
2019-02-26T20:49:29.099Z,7.86
2019-02-26T20:52:00.215Z,7.77
2019-02-26T20:54:30.426Z,7.70
2019-02-26T20:57:03.759Z,7.65
2019-02-26T20:59:33.139Z,7.61
2019-02-26T21:02:03.342Z,7.57
2019-02-26T21:04:34.158Z,7.51
2019-02-26T21:07:04.554Z,7.44
2019-02-26T21:09:40.143Z,7.40
2019-02-26T21:12:13.772Z,7.35
2019-02-26T21:14:44.086Z,7.33
2019-02-26T21:17:14.663Z,7.30
2019-02-26T21:19:47.606Z,7.28
2019-02-26T21:22:19.743Z,7.24
2019-02-26T21:24:50.476Z,7.22
2019-02-26T21:27:23.799Z,7.18
2019-02-26T21:29:54.938Z,7.19
2019-02-26T21:32:26.313Z,7.23
2019-02-26T21:34:57.101Z,7.26
2019-02-26T21:37:27.462Z,7.26
2019-02-26T21:39:57.909Z,7.27
2019-02-26T21:42:29.483Z,7.29
2019-02-26T21:45:00.324Z,7.30
2019-02-26T21:47:35.129Z,7.28
2019-02-26T21:50:06.929Z,7.27
2019-02-26T21:52:37.207Z,7.29
2019-02-26T21:55:08.275Z,7.28
2019-02-26T21:57:38.567Z,7.26
2019-02-26T22:00:13.448Z,7.22
2019-02-26T22:02:52.010Z,7.20
2019-02-26T22:05:25.420Z,7.16
2019-02-26T22:07:58.628Z,7.14
2019-02-26T22:10:30.279Z,7.13
2019-02-26T22:13:04.922Z,7.11
2019-02-26T22:15:36.299Z,7.11
2019-02-26T22:18:14.026Z,7.12
2019-02-26T22:20:46.726Z,7.12
2019-02-26T22:23:17.362Z,7.10
2019-02-26T22:25:49.770Z,7.03
2019-02-26T22:28:20.485Z,7.05
2019-02-26T22:30:51.075Z,7.03
2019-02-26T22:33:21.414Z,6.99
2019-02-26T22:35:51.988Z,6.94
2019-02-26T22:38:22.374Z,6.89
2019-02-26T22:40:55.837Z,6.82
2019-02-26T22:43:26.309Z,6.82
2019-02-26T22:46:00.768Z,6.80
2019-02-26T22:48:29.673Z,6.79
2019-02-26T22:51:01.132Z,6.77
2019-02-26T22:53:31.592Z,6.73
2019-02-26T22:56:02.024Z,6.73
2019-02-26T22:58:35.592Z,6.68
2019-02-26T23:01:18.545Z,6.67
2019-02-26T23:03:49.209Z,6.61
2019-02-26T23:06:19.496Z,6.57
2019-02-26T23:08:49.780Z,6.66
2019-02-26T23:11:20.449Z,6.66
2019-02-26T23:13:51.045Z,6.59
2019-02-26T23:16:21.492Z,6.52
2019-02-26T23:18:52.191Z,6.49
2019-02-26T23:21:22.976Z,6.44
2019-02-26T23:23:54.923Z,6.35
2019-02-26T23:26:25.316Z,6.27
2019-02-26T23:28:55.640Z,6.18
2019-02-26T23:31:26.105Z,6.14
2019-02-26T23:33:56.535Z,6.03
2019-02-26T23:36:28.545Z,6.02
2019-02-26T23:38:59.513Z,5.98
2019-02-26T23:41:30.809Z,5.98
2019-02-26T23:44:02.238Z,5.96
2019-02-26T23:46:32.780Z,5.94
2019-02-26T23:49:03.066Z,5.92
2019-02-26T23:51:33.451Z,5.87
2019-02-26T23:54:07.164Z,5.82
2019-02-26T23:56:36.661Z,5.77
2019-02-26T23:59:07.047Z,5.69
